Hlavní strana
METAR-TAF:

METAR-TAF

Letiště :

Acapulco, Mexiko

zeměpisná šířka: 16-46N, zeměpisná délka: 099-45W, výška: 5 m

Aktuální stav počasí

Zpráva byla vytvořena před 1 hodinou a 18 minutami, v 06:43 UTC
Východoseverovýchodní vítr 5 kt
Teplota 25°C
Vlhkost vzduchu 94%
Tlak 1013 hPa
Viditelnost: 8.0 km
Jasno

METAR: MMAA 200643Z 06005KT 5SM SKC 25/24 A2991 RMK HZY

Čas: 02:01 (08:01 UTC)

Předpověď počasí

Zpráva byla vytvořena před 3 hodinami a 39 minutami, v 04:22 UTC
Předpověď platná od 20 v 06 UTC do 21 v 12 UTC
Severní vítr kt
Viditelnost: 8.0 km
Jasno
zákal
Od 20 v 1800 UTC
Jihozápadní vítr 10 kt
Viditelnost: 9.7 km
Jasno
zákal
Od 21 v 0400 UTC
Jihozápadní vítr 5 kt
Viditelnost: 9.7 km
Jasno
zákal

TAF: MMAA 200422Z 2006/2112 00000KT 5SM HZ SKC TX31/2021Z TN24/2012Z FM201800 23010KT 6SM HZ SKC FM210400 23005KT 6SM HZ SKC

Stav a předpovědi počasí z více než 4 000 letišť (zprávy METAR a TAF).

Červené a žluté tečky na mapě představují dostupné meteorologické stanice.

Když kurzor umístíte na tečku, zobrazí se název stanice.

Pak kliknutím zobrazíte stav a předpověď počasí.

Chcete-li změnit mapu, kliknutím na zelené tlačítko se znaménkem +mapu přiblížíte, kliknutím na zelené tlačítko se znaménkem – mapu oddálíte a kliknutím na zelené šipky přejdete na sousední mapy.


METAR-TAF: